Airfield :







YOU CAN JOIN US ON...

 
LOGIN :

Register | Disclaimer

   EN    FR    IT 

 









Legend :    VFR   Marginal VFR   IFR   Intensive IFR   Very Intensive IFR
Visi :
Ceiling :
>= 8 km
>= 3000ft
5 to 8 km
1000 to 3000 ft
1500m to 5 km
500 to 1000 ft
800 to 1500m
200 to 500 ft
< 800m
< 200 ft
Symbols :   Thunderstorms  Fog  Heavy snow  Heavy precipitations  Wind > 20 kt






- Airport Elevation : 68 ft
- IATA code : YFC


CYFC - Fredericton

CURRENT METAR :
  • 060400Z AUTO 26009G16KT 240V300 9SM OVC066 M11/M19 A2962 RMK SLP032

EXPIRED METARs :
  • 060300Z AUTO 28011G21KT 240V310 9SM SCT071 BKN091 OVC110 M11/M19 A2962 RMK SLP032
  • 060200Z AUTO 28008G15KT 250V320 9SM OVC110 M10/M19 A2961 RMK SLP028

TAF TAF CYFC
Valid from the 06 at 00:00 until the 06 at 12:00 UTC


052338Z 0600/0612 28010G20KT P6SM FEW030 BKN120
TEMPO 0600/0612 BKN030
BECMG 0602/0604 27010KT RMK FCST BASED ON AUTO OBS. NXT FCST BY 060600Z
CZQM FIR / North America



MET'MAP, your aeronautical weather chart ! - Copyright ORBIFLY December 2007 - Disclaimer

ORBIFLY MET'MAP TEAM :

Programming & Development : Alexandra Zaïnal
Concept & original design : Baudouin d'Aumeries
Assistance for programming : Marc-Olivier Méhu
Technical & hardware support : Manuel Goepfert

Contact : metmap@orbifly.com




SOURCES & CREDITS :

   NOAA